createdAt,value
2022-12-25T00:02:02.483Z,3411.84008
2022-12-25T00:17:04.420Z,3476.00568
2022-12-25T00:32:06.389Z,3480.51997
2022-12-25T00:47:08.405Z,3350.00049
2022-12-25T01:02:10.521Z,3396.70518
2022-12-25T01:17:12.614Z,3288.34404
2022-12-25T01:32:14.593Z,3181.00939
2022-12-25T01:47:16.563Z,3123.54361
2022-12-25T02:02:18.627Z,3207.66057
2022-12-25T02:17:20.714Z,3278.28795
2022-12-25T02:32:22.735Z,3260.34112
2022-12-25T02:47:24.672Z,3427.11046
2022-12-25T03:02:26.618Z,3350.00049
2022-12-25T03:17:28.571Z,3302.52667
2022-12-25T03:32:30.524Z,3266.30152
2022-12-25T03:47:32.456Z,3110.85365
2022-12-25T04:02:34.597Z,3101.85234
2022-12-25T04:17:36.630Z,3127.18835
2022-12-25T04:32:38.613Z,2987.73743
2022-12-25T04:47:40.521Z,2881.72096
2022-12-25T05:02:42.650Z,2762.88712
2022-12-25T05:17:44.781Z,2698.89277
2022-12-25T05:32:46.670Z,2685.37126
2022-12-25T05:47:48.583Z,2656.09566
2022-12-25T06:02:50.707Z,2579.40379
2022-12-25T06:17:52.819Z,2540.28488
2022-12-25T06:32:54.740Z,2486.08586
2022-12-25T06:47:56.881Z,2476.89515
2022-12-25T07:02:58.974Z,2423.14699
2022-12-25T07:18:01.326Z,2579.40379
2022-12-25T07:33:03.266Z,2743.09162
2022-12-25T07:48:06.299Z,2878.62566
2022-12-25T08:03:10.410Z,2720.81271
2022-12-25T08:18:12.476Z,2906.72504
2022-12-25T08:33:14.382Z,2737.48775
2022-12-25T08:48:16.354Z,2701.61342
2022-12-25T09:03:18.451Z,2648.22186
2022-12-25T09:18:20.485Z,2576.92359
2022-12-25T09:33:22.463Z,2533.0818
2022-12-25T09:48:24.346Z,2495.34502
2022-12-25T10:03:26.428Z,2436.36415
2022-12-25T10:18:28.478Z,2328.41059
2022-12-25T10:33:30.526Z,2113.56517
2022-12-25T10:48:32.428Z,2359.15544
2022-12-25T11:03:34.628Z,2267.34399
2022-12-25T11:18:36.648Z,2137.16159
2022-12-25T11:33:38.577Z,2090.48412
2022-12-25T11:48:40.520Z,2298.45677
2022-12-25T12:03:42.574Z,2906.72504
2022-12-25T12:18:50.049Z,2887.93156
2022-12-25T12:33:52.629Z,3048.91971
2022-12-25T12:48:54.606Z,3011.23644
2022-12-25T13:03:56.443Z,2938.59702
2022-12-25T13:18:58.296Z,2803.34781
2022-12-25T13:34:00.156Z,3075.15826
2022-12-25T13:49:02.008Z,3304.56276
2022-12-25T14:04:03.882Z,3433.69684
2022-12-25T14:19:05.717Z,3455.83543
2022-12-25T14:34:07.531Z,3476.00568
2022-12-25T14:49:09.381Z,3480.51997
2022-12-25T15:04:11.291Z,3517.06086
2022-12-25T15:19:13.153Z,3549.66937
2022-12-25T15:34:15.012Z,3521.68249
2022-12-25T15:49:17.168Z,3599.73186
2022-12-25T16:04:19.076Z,3646.259
2022-12-25T16:19:20.955Z,3329.19303
2022-12-25T16:34:22.800Z,3244.55254
2022-12-25T16:49:24.863Z,3164.1091
2022-12-25T17:04:26.942Z,2696.17758
2022-12-25T17:19:28.885Z,2470.0466
2022-12-25T17:34:30.879Z,2336.53059
2022-12-25T17:49:32.826Z,2191.33329
2022-12-25T18:04:34.739Z,2198.52388
2022-12-25T18:19:36.662Z,2229.61781
2022-12-25T18:34:38.669Z,2367.49168
2022-12-25T18:49:40.569Z,2380.10708
2022-12-25T19:04:42.471Z,2454.21297
2022-12-25T19:19:44.363Z,2521.16702
2022-12-25T19:34:46.295Z,2537.8793
2022-12-25T19:49:52.844Z,2612.08629
2022-12-25T20:04:55.252Z,2552.38147
2022-12-25T20:19:57.222Z,2213.04757
2022-12-25T20:34:59.105Z,2410.07245
2022-12-25T20:50:01.133Z,2373.78262
2022-12-25T21:05:03.018Z,2361.23399
2022-12-25T21:20:05.060Z,2384.34215
2022-12-25T21:35:07.003Z,2438.58104
2022-12-25T21:50:08.944Z,2851.06436
2022-12-25T22:05:10.858Z,2857.14339
2022-12-25T22:20:12.820Z,2951.54238
2022-12-25T22:35:14.790Z,2951.54238
2022-12-25T22:50:16.760Z,3038.54924
2022-12-25T23:05:18.765Z,3076.92356
2022-12-25T23:20:20.695Z,3066.36204
2022-12-25T23:35:22.594Z,3236.71546
2022-12-25T23:50:24.528Z,2958.05793
